Time;durP1;ratioP1;P1;durP2;ratioP2;P2;SDS_P1;SDS_P2;PMS_P1;PMS_P2;Temp;Humidity;BMP_temperature;BMP_pressure;BME280_temperature;BME280_humidity;BME280_pressure;Samples;Min_cycle;Max_cycle;Signal;HPM_P1;HPM_P2
2023/01/10 00:01:31;;;;;;;84.30;38.50;;;;;;;5.36;100.00;97783.97;5052227;28;20192;-59
2023/01/10 00:03:56;;;;;;;79.75;37.60;;;;;;;5.72;100.00;97824.63;5052569;28;20198;-59
2023/01/10 00:06:22;;;;;;;76.07;37.97;;;;;;;5.75;100.00;97822.72;5052483;28;20676;-59
2023/01/10 00:08:47;;;;;;;81.85;38.83;;;;;;;5.42;100.00;97747.69;5052493;28;20188;-60
2023/01/10 00:13:57;;;;;;;86.85;38.58;;;;;;;5.80;100.00;97818.16;5052511;28;20632;-59
2023/01/10 00:16:22;;;;;;;74.10;36.50;;;;;;;5.68;100.00;97800.91;5052293;28;20174;-59
2023/01/10 00:18:48;;;;;;;81.80;37.53;;;;;;;5.69;100.00;97806.84;5052352;28;20644;-59
2023/01/10 00:21:14;;;;;;;84.90;37.72;;;;;;;5.65;100.00;97793.38;5052344;28;20174;-59
2023/01/10 00:23:40;;;;;;;78.47;37.15;;;;;;;5.61;100.00;97801.34;5052308;28;20639;-59
2023/01/10 00:26:06;;;;;;;83.57;37.05;;;;;;;5.59;100.00;97791.16;5052603;28;20165;-60
2023/01/10 00:28:34;;;;;;;78.75;38.35;;;;;;;5.43;100.00;97785.25;5052233;28;20674;-59
2023/01/10 00:31:05;;;;;;;80.82;37.20;;;;;;;5.40;100.00;97774.34;5052237;28;20535;-59
2023/01/10 00:33:31;;;;;;;77.40;37.50;;;;;;;5.24;100.00;97761.59;5052438;28;20217;-60
2023/01/10 00:36:01;;;;;;;71.78;36.42;;;;;;;5.02;100.00;97732.97;5052166;28;20212;-59
2023/01/10 00:38:27;;;;;;;82.88;37.53;;;;;;;5.32;100.00;97776.53;5052382;28;20190;-59
2023/01/10 00:40:52;;;;;;;78.90;35.47;;;;;;;5.28;100.00;97768.22;5050173;28;20713;-59
2023/01/10 00:46:02;;;;;;;68.80;34.67;;;;;;;5.18;100.00;97761.94;5050593;28;20746;-59
2023/01/10 00:48:27;;;;;;;81.60;37.08;;;;;;;5.33;100.00;97778.19;5049712;28;20268;-59
2023/01/10 00:50:53;;;;;;;80.10;37.13;;;;;;;5.34;100.00;97759.31;5050156;28;20269;-60
2023/01/10 00:53:18;;;;;;;88.05;37.50;;;;;;;5.18;100.00;97686.78;5050000;28;20177;-59
2023/01/10 00:55:44;;;;;;;72.72;37.92;;;;;;;5.51;100.00;97730.94;5050186;28;20265;-59
2023/01/10 00:58:10;;;;;;;81.63;37.80;;;;;;;5.38;100.00;97724.91;5049582;28;20205;-59
2023/01/10 01:00:37;;;;;;;84.25;37.05;;;;;;;5.30;100.00;97717.66;5049608;28;20636;-59
2023/01/10 01:03:04;;;;;;;84.32;38.15;;;;;;;4.74;100.00;97637.25;5049881;28;20178;-60
2023/01/10 01:05:30;;;;;;;80.55;37.60;;;;;;;4.78;100.00;97631.88;5049545;28;20288;-60
2023/01/10 01:07:55;;;;;;;81.90;38.25;;;;;;;5.09;100.00;97666.78;5049626;28;20634;-60
2023/01/10 01:10:26;;;;;;;80.68;38.22;;;;;;;5.37;100.00;97715.56;5049487;28;20205;-60
2023/01/10 01:13:05;;;;;;;78.72;36.63;;;;;;;5.44;100.00;97735.63;5051610;28;20644;-59
2023/01/10 01:15:30;;;;;;;76.38;37.03;;;;;;;5.25;100.00;97688.06;5055259;28;20613;-59
2023/01/10 01:17:55;;;;;;;69.60;36.40;;;;;;;5.36;100.00;97722.41;5055496;28;20194;-59
2023/01/10 01:20:21;;;;;;;89.32;36.10;;;;;;;5.27;100.00;97732.38;5055591;28;20228;-60
2023/01/10 01:22:47;;;;;;;79.53;36.47;;;;;;;5.38;100.00;97738.56;5056305;28;20185;-60
2023/01/10 01:25:12;;;;;;;77.38;35.22;;;;;;;5.26;100.00;97708.47;5055981;28;20256;-60
2023/01/10 01:27:37;;;;;;;84.25;38.78;;;;;;;4.98;100.00;97679.41;5055971;28;20243;-60
2023/01/10 01:30:05;;;;;;;82.63;38.35;;;;;;;5.25;100.00;97737.59;5055955;28;20170;-60
2023/01/10 01:32:30;;;;;;;91.13;39.25;;;;;;;5.28;100.00;97745.13;5055301;28;20645;-59
2023/01/10 01:34:56;;;;;;;75.80;35.47;;;;;;;5.06;100.00;97685.75;5055599;28;20248;-60
2023/01/10 01:37:21;;;;;;;73.53;36.38;;;;;;;5.14;100.00;97701.50;5055229;28;20194;-59
2023/01/10 01:39:47;;;;;;;77.47;35.42;;;;;;;5.07;100.00;97694.28;5055193;28;20196;-59
2023/01/10 01:42:31;;;;;;;80.47;37.08;;;;;;;5.15;100.00;97687.78;5055161;28;20181;-59
2023/01/10 01:45:08;;;;;;;80.63;38.30;;;;;;;5.51;100.00;97726.66;5055429;28;20173;-59
2023/01/10 01:47:40;;;;;;;81.10;38.00;;;;;;;5.54;100.00;97721.31;5054801;28;20580;-59
2023/01/10 01:50:34;;;;;;;76.60;37.97;;;;;;;5.31;100.00;97692.84;5055315;28;20628;-60
2023/01/10 01:53:01;;;;;;;86.18;39.13;;;;;;;5.22;100.00;97662.59;5053180;28;20735;-59
2023/01/10 01:55:30;;;;;;;83.10;40.10;;;;;;;5.50;100.00;97708.78;5054934;28;20169;-60
2023/01/10 01:57:59;;;;;;;81.18;38.13;;;;;;;5.38;100.00;97723.16;5054961;28;20194;-60
2023/01/10 02:00:24;;;;;;;77.00;36.60;;;;;;;5.33;100.00;97712.34;5054768;28;20209;-59
2023/01/10 02:02:53;;;;;;;80.32;37.88;;;;;;;5.20;100.00;97678.06;5054788;28;20174;-59
2023/01/10 02:05:23;;;;;;;81.03;38.25;;;;;;;5.15;100.00;97674.97;5054778;28;20180;-59
2023/01/10 02:07:52;;;;;;;74.45;36.58;;;;;;;5.24;100.00;97687.22;5055280;28;20269;-60
2023/01/10 02:10:38;;;;;;;78.72;37.08;;;;;;;5.28;100.00;97683.59;5055441;28;20198;-60
2023/01/10 02:13:07;;;;;;;74.93;36.33;;;;;;;4.92;100.00;97629.34;5055176;28;20580;-59
2023/01/10 02:15:32;;;;;;;75.95;36.17;;;;;;;4.83;100.00;97619.63;5054528;28;20178;-59
2023/01/10 02:18:00;;;;;;;74.13;35.95;;;;;;;5.04;100.00;97643.16;5054895;28;20194;-59
2023/01/10 02:20:29;;;;;;;88.63;39.45;;;;;;;4.80;100.00;97608.72;5054149;28;20664;-59
2023/01/10 02:23:01;;;;;;;85.15;36.88;;;;;;;5.11;100.00;97655.53;5054361;28;20622;-60
2023/01/10 02:25:48;;;;;;;96.78;42.97;;;;;;;4.97;100.00;97647.84;5053197;28;20193;-59
2023/01/10 02:28:22;;;;;;;89.35;41.03;;;;;;;5.08;100.00;97640.31;5054603;28;20205;-60
2023/01/10 02:30:59;;;;;;;90.25;45.55;;;;;;;4.97;100.00;97632.47;5054606;28;20165;-60
2023/01/10 02:33:44;;;;;;;79.72;38.67;;;;;;;5.06;100.00;97636.19;5053955;28;20193;-59
2023/01/10 02:36:24;;;;;;;85.07;37.47;;;;;;;5.21;100.00;97625.88;5053842;28;20162;-60
2023/01/10 02:39:12;;;;;;;91.90;39.58;;;;;;;4.98;100.00;97576.88;5054712;28;20184;-60
2023/01/10 02:41:48;;;;;;;72.57;36.20;;;;;;;5.23;100.00;97628.34;5054399;28;20577;-59
2023/01/10 02:44:23;;;;;;;84.25;38.08;;;;;;;4.94;100.00;97575.41;5054332;28;20646;-60
2023/01/10 02:46:48;;;;;;;76.88;36.83;;;;;;;4.95;100.00;97569.41;5054271;28;20166;-60
2023/01/10 02:49:14;;;;;;;83.75;36.92;;;;;;;5.38;100.00;97653.91;5053842;28;20185;-59
2023/01/10 02:51:39;;;;;;;84.32;37.53;;;;;;;5.10;100.00;97596.66;5053804;28;20183;-59
2023/01/10 02:54:18;;;;;;;79.88;36.65;;;;;;;5.38;100.00;97625.69;5053722;28;20174;-59
2023/01/10 02:56:46;;;;;;;73.90;33.30;;;;;;;5.53;100.00;97636.78;5054243;28;20196;-59
2023/01/10 02:59:36;;;;;;;59.55;27.77;;;;;;;5.65;100.00;97636.84;5053700;28;20181;-59
2023/01/10 03:02:44;;;;;;;51.60;25.45;;;;;;;5.74;100.00;97618.31;5054145;28;20169;-60
2023/01/10 03:05:18;;;;;;;53.85;24.90;;;;;;;5.78;100.00;97637.72;5051246;28;20197;-60
2023/01/10 03:07:46;;;;;;;40.65;19.23;;;;;;;5.85;100.00;97627.94;5051441;28;20228;-59
2023/01/10 03:10:19;;;;;;;38.50;19.45;;;;;;;5.80;100.00;97617.97;5051398;28;20687;-59
2023/01/10 03:12:55;;;;;;;40.03;19.02;;;;;;;5.81;100.00;97605.94;5051695;28;20190;-59
2023/01/10 03:15:23;;;;;;;37.25;18.45;;;;;;;5.87;100.00;97601.25;5051879;28;20197;-59
2023/01/10 03:17:53;;;;;;;36.45;17.30;;;;;;;5.57;100.00;97551.00;5051402;28;20639;-60
2023/01/10 03:20:20;;;;;;;34.63;16.52;;;;;;;5.86;100.00;97602.19;5051079;28;20693;-60
2023/01/10 03:22:47;;;;;;;37.83;17.48;;;;;;;5.55;100.00;97558.78;5050970;28;20177;-60
2023/01/10 03:25:16;;;;;;;43.63;22.40;;;;;;;5.79;100.00;97593.19;5051519;28;20200;-59
2023/01/10 03:27:58;;;;;;;47.63;22.60;;;;;;;5.81;100.00;97598.25;5051126;28;20185;-59
2023/01/10 03:30:29;;;;;;;41.63;20.70;;;;;;;5.86;100.00;97606.47;5051339;28;20276;-60
2023/01/10 03:32:56;;;;;;;34.25;18.40;;;;;;;5.50;100.00;97535.19;5050856;28;20237;-59
2023/01/10 03:35:45;;;;;;;32.15;16.00;;;;;;;5.90;100.00;97580.53;5050970;28;20251;-59
2023/01/10 03:38:32;;;;;;;37.33;17.02;;;;;;;5.95;100.00;97591.31;5050246;28;20210;-59
2023/01/10 03:41:06;;;;;;;40.97;20.17;;;;;;;5.86;100.00;97584.22;5051472;28;20178;-60
2023/01/10 03:46:41;;;;;;;51.22;24.73;;;;;;;5.81;100.00;97563.16;5051161;28;20177;-60
2023/01/10 03:49:08;;;;;;;49.60;25.08;;;;;;;5.40;100.00;97521.25;5051105;28;20571;-59
2023/01/10 03:51:36;;;;;;;53.97;24.98;;;;;;;5.42;100.00;97537.38;5050385;28;20170;-60
2023/01/10 03:54:02;;;;;;;59.78;26.38;;;;;;;5.37;100.00;97539.41;5050327;28;20645;-60
2023/01/10 03:56:27;;;;;;;55.22;25.33;;;;;;;5.39;100.00;97537.56;5050441;28;20220;-60
2023/01/10 03:58:53;;;;;;;53.40;23.65;;;;;;;5.18;100.00;97492.72;5050604;28;20671;-60
2023/01/10 04:01:18;;;;;;;46.25;22.80;;;;;;;5.24;100.00;97489.78;5050274;28;20177;-59
2023/01/10 04:03:44;;;;;;;45.90;23.58;;;;;;;5.28;100.00;97514.34;5050581;28;20173;-60
2023/01/10 04:06:09;;;;;;;51.10;25.25;;;;;;;5.15;100.00;97484.41;5050176;28;20650;-60
2023/01/10 04:08:35;;;;;;;46.83;24.30;;;;;;;5.41;100.00;97525.47;5050195;28;20189;-60
2023/01/10 04:11:00;;;;;;;56.65;23.83;;;;;;;5.45;100.00;97529.50;5050104;28;20212;-60
2023/01/10 04:13:26;;;;;;;47.65;23.58;;;;;;;5.57;100.00;97545.84;5050391;28;20513;-60
2023/01/10 04:15:51;;;;;;;43.33;21.65;;;;;;;5.68;100.00;97546.00;5052345;28;20181;-60
2023/01/10 04:18:18;;;;;;;42.85;22.13;;;;;;;5.72;100.00;97540.59;5052821;28;20588;-60
2023/01/10 04:20:43;;;;;;;44.50;21.73;;;;;;;5.40;100.00;97484.53;5052553;28;20173;-60
2023/01/10 04:23:09;;;;;;;43.92;21.38;;;;;;;5.70;100.00;97521.06;5052914;28;20169;-60
2023/01/10 04:25:34;;;;;;;40.03;21.27;;;;;;;5.38;100.00;97450.47;5052331;28;20216;-60
2023/01/10 04:27:59;;;;;;;39.58;22.02;;;;;;;5.98;100.00;97542.38;5052249;28;20174;-60
2023/01/10 04:30:26;;;;;;;51.67;22.45;;;;;;;5.77;100.00;97506.97;5052335;28;20161;-60
2023/01/10 04:32:51;;;;;;;57.67;25.48;;;;;;;5.93;100.00;97539.28;5052354;28;20274;-60
2023/01/10 04:35:16;;;;;;;50.05;23.80;;;;;;;5.79;100.00;97520.50;5051887;28;20260;-60
2023/01/10 04:37:42;;;;;;;50.03;24.48;;;;;;;5.79;100.00;97498.25;5052153;28;20340;-60
2023/01/10 04:40:08;;;;;;;45.92;24.83;;;;;;;6.13;100.00;97549.06;5052176;28;20169;-60
2023/01/10 04:42:34;;;;;;;59.67;25.83;;;;;;;6.16;100.00;97546.31;5052122;28;20539;-60
2023/01/10 04:44:59;;;;;;;48.05;24.70;;;;;;;5.83;100.00;97492.00;5052080;28;20185;-60
2023/01/10 04:47:24;;;;;;;54.58;25.42;;;;;;;5.55;100.00;97435.63;5052056;28;20185;-60
2023/01/10 04:49:50;;;;;;;43.95;21.17;;;;;;;6.03;100.00;97532.63;5055203;28;20165;-60
2023/01/10 04:52:15;;;;;;;44.97;19.90;;;;;;;5.89;100.00;97504.44;5056401;28;20181;-60
2023/01/10 04:54:41;;;;;;;45.75;19.63;;;;;;;6.02;100.00;97512.19;5056079;28;20196;-60
2023/01/10 04:57:06;;;;;;;39.92;20.13;;;;;;;5.69;100.00;97458.69;5056011;28;20244;-60
2023/01/10 04:59:32;;;;;;;45.38;20.38;;;;;;;5.73;100.00;97475.53;5056182;28;20197;-60
2023/01/10 05:01:57;;;;;;;45.50;20.65;;;;;;;5.95;100.00;97509.19;5055898;28;20169;-60
2023/01/10 05:04:23;;;;;;;38.58;19.85;;;;;;;6.09;100.00;97536.53;5055873;28;20200;-60
2023/01/10 05:06:49;;;;;;;43.10;20.40;;;;;;;5.66;100.00;97453.72;5055703;28;20289;-60
2023/01/10 05:09:14;;;;;;;40.08;20.10;;;;;;;6.24;100.00;97538.13;5056256;28;20227;-60
2023/01/10 05:11:39;;;;;;;44.70;20.63;;;;;;;5.85;100.00;97467.06;5056250;28;20180;-60
2023/01/10 05:14:05;;;;;;;37.88;19.25;;;;;;;6.06;100.00;97518.78;5055689;28;20207;-60
2023/01/10 05:16:30;;;;;;;36.50;18.92;;;;;;;5.74;100.00;97492.56;5055832;28;20638;-60
2023/01/10 05:18:56;;;;;;;37.75;19.45;;;;;;;5.78;100.00;97517.09;5055789;28;20166;-60
2023/01/10 05:21:21;;;;;;;41.53;21.30;;;;;;;5.53;100.00;97478.53;5055503;28;20184;-60
2023/01/10 05:23:47;;;;;;;39.33;20.20;;;;;;;5.80;100.00;97517.88;5052854;28;20166;-60
2023/01/10 05:26:19;;;;;;;42.20;22.10;;;;;;;5.94;100.00;97499.03;5055382;28;20174;-60
2023/01/10 05:28:45;;;;;;;35.60;19.00;;;;;;;5.72;100.00;97475.63;5055431;28;20167;-60
2023/01/10 05:31:13;;;;;;;37.92;21.20;;;;;;;5.64;100.00;97447.88;5055301;28;20170;-60
2023/01/10 05:33:38;;;;;;;42.25;21.67;;;;;;;5.81;100.00;97478.44;5055651;28;20186;-60
2023/01/10 05:36:05;;;;;;;40.03;22.33;;;;;;;5.96;100.00;97492.88;5054958;28;20176;-60
2023/01/10 05:38:31;;;;;;;45.45;21.83;;;;;;;5.96;100.00;97477.47;5054802;28;20204;-60
2023/01/10 05:40:58;;;;;;;39.70;20.88;;;;;;;5.92;100.00;97470.88;5055512;28;20231;-60
2023/01/10 05:43:24;;;;;;;30.55;16.55;;;;;;;6.01;100.00;97477.16;5055110;28;20176;-60
2023/01/10 05:45:50;;;;;;;36.45;19.50;;;;;;;6.14;100.00;97485.72;5055418;28;20197;-60
2023/01/10 05:48:16;;;;;;;38.92;21.05;;;;;;;6.20;100.00;97481.00;5055049;28;20318;-60
2023/01/10 05:50:41;;;;;;;46.17;24.38;;;;;;;6.23;100.00;97475.66;5055067;28;20538;-60
2023/01/10 05:53:06;;;;;;;41.08;22.20;;;;;;;6.07;100.00;97438.25;5055016;28;20202;-60
2023/01/10 05:55:32;;;;;;;47.65;22.88;;;;;;;6.45;100.00;97486.16;5055248;28;20519;-60
2023/01/10 05:57:58;;;;;;;40.08;20.40;;;;;;;6.50;100.00;97485.84;5054465;28;20204;-60
2023/01/10 06:00:26;;;;;;;45.75;22.00;;;;;;;6.17;100.00;97440.09;5054767;28;20268;-60
2023/01/10 06:02:55;;;;;;;45.70;22.70;;;;;;;6.26;100.00;97457.47;5055317;28;20173;-60
2023/01/10 06:05:21;;;;;;;45.53;22.80;;;;;;;6.59;100.00;97493.75;5054722;28;20185;-60
2023/01/10 06:07:47;;;;;;;49.25;25.33;;;;;;;6.49;100.00;97471.34;5054652;28;20169;-60
2023/01/10 06:10:12;;;;;;;43.33;21.60;;;;;;;6.44;100.00;97475.97;5054979;28;20598;-60
2023/01/10 06:12:39;;;;;;;40.25;19.60;;;;;;;6.10;100.00;97459.41;5054576;28;20172;-60
2023/01/10 06:15:06;;;;;;;37.22;20.63;;;;;;;6.26;100.00;97469.50;5054521;28;20189;-60
2023/01/10 06:17:31;;;;;;;37.53;20.75;;;;;;;5.56;100.00;97388.56;5054435;28;20202;-60
2023/01/10 06:19:57;;;;;;;48.05;22.67;;;;;;;5.51;100.00;97372.63;5055003;28;20639;-60
2023/01/10 06:22:22;;;;;;;44.17;23.20;;;;;;;6.09;100.00;97468.03;5054401;28;20250;-60
2023/01/10 06:24:47;;;;;;;49.42;23.75;;;;;;;5.95;100.00;97462.97;5054450;28;20638;-60
2023/01/10 06:27:13;;;;;;;49.25;23.10;;;;;;;5.60;100.00;97418.19;5054299;28;20178;-60
2023/01/10 06:29:38;;;;;;;43.03;23.25;;;;;;;5.61;100.00;97424.16;5054788;28;20201;-60
2023/01/10 06:32:03;;;;;;;47.50;23.60;;;;;;;5.74;100.00;97441.25;5054126;28;20182;-59
2023/01/10 06:34:29;;;;;;;49.58;25.45;;;;;;;6.08;100.00;97476.69;5054222;28;20223;-60
2023/01/10 06:36:54;;;;;;;46.55;24.30;;;;;;;6.09;100.00;97468.03;5054398;28;20280;-60
2023/01/10 06:39:19;;;;;;;46.88;24.58;;;;;;;5.89;100.00;97430.00;5054097;28;20535;-60
2023/01/10 06:41:45;;;;;;;47.63;24.48;;;;;;;6.30;100.00;97476.06;5053759;28;20205;-60
2023/01/10 06:44:10;;;;;;;48.47;25.17;;;;;;;6.36;100.00;97497.03;5054025;28;20174;-60
2023/01/10 06:46:36;;;;;;;44.55;24.23;;;;;;;6.07;100.00;97423.66;5053988;28;20166;-60
2023/01/10 06:49:01;;;;;;;58.83;28.70;;;;;;;6.14;100.00;97427.47;5053864;28;20181;-59
2023/01/10 06:51:26;;;;;;;73.93;38.85;;;;;;;6.00;100.00;97396.75;5053885;28;20170;-60
2023/01/10 06:53:52;;;;;;;79.10;35.88;;;;;;;6.31;100.00;97431.47;5053830;28;20199;-60
2023/01/10 06:56:17;;;;;;;63.00;35.22;;;;;;;6.29;100.00;97429.00;5053482;28;20177;-59
2023/01/10 06:58:43;;;;;;;67.55;34.92;;;;;;;6.51;100.00;97465.19;5053872;28;20233;-60
2023/01/10 07:01:14;;;;;;;66.65;33.85;;;;;;;6.62;100.00;97462.72;5053444;28;20174;-60
2023/01/10 07:03:40;;;;;;;58.38;29.92;;;;;;;6.34;100.00;97401.28;5053643;28;20536;-60
2023/01/10 07:06:09;;;;;;;62.63;30.70;;;;;;;6.35;100.00;97407.25;5054176;28;20173;-60
2023/01/10 07:08:42;;;;;;;62.13;30.88;;;;;;;6.61;100.00;97453.38;5053580;28;20188;-60
2023/01/10 07:11:09;;;;;;;80.93;40.90;;;;;;;6.49;100.00;97428.50;5053627;28;20162;-60
2023/01/10 07:13:35;;;;;;;92.25;41.17;;;;;;;6.38;100.00;97407.84;5053290;28;20205;-60
2023/01/10 07:16:05;;;;;;;92.00;44.17;;;;;;;6.55;100.00;97440.94;5053402;28;20178;-60
2023/01/10 07:18:33;;;;;;;91.25;39.92;;;;;;;6.33;100.00;97407.34;5053329;28;20243;-60
2023/01/10 07:20:58;;;;;;;102.55;43.95;;;;;;;6.57;100.00;97453.66;5053915;28;20174;-61
2023/01/10 07:23:24;;;;;;;113.88;47.38;;;;;;;6.15;100.00;97406.00;5053286;28;20228;-61
2023/01/10 07:25:49;;;;;;;110.85;46.60;;;;;;;6.40;100.00;97447.09;5053174;28;20181;-61
2023/01/10 07:28:14;;;;;;;117.60;48.75;;;;;;;6.07;100.00;97387.72;5053196;28;20173;-60
2023/01/10 07:30:40;;;;;;;118.18;49.50;;;;;;;6.41;100.00;97430.75;5053150;28;20635;-61
2023/01/10 07:33:05;;;;;;;120.63;50.08;;;;;;;6.17;100.00;97403.34;5053279;28;20190;-61
2023/01/10 07:35:31;;;;;;;120.07;51.45;;;;;;;5.86;100.00;97339.56;5053022;28;20627;-61
2023/01/10 07:37:58;;;;;;;128.85;53.30;;;;;;;6.34;100.00;97419.25;5052717;28;20206;-61
2023/01/10 07:40:24;;;;;;;120.45;52.85;;;;;;;5.81;100.00;97332.16;5052886;28;20563;-60
2023/01/10 07:42:58;;;;;;;117.25;51.92;;;;;;;6.30;100.00;97402.41;5032729;28;20257;-61
2023/01/10 07:45:25;;;;;;;127.63;57.47;;;;;;;5.86;100.00;97327.56;5033113;28;20170;-60
2023/01/10 07:47:56;;;;;;;141.52;58.97;;;;;;;6.08;100.00;97348.28;5033162;28;20186;-61
2023/01/10 07:50:21;;;;;;;123.43;54.53;;;;;;;6.31;100.00;97398.94;5032994;28;20583;-60
2023/01/10 07:52:46;;;;;;;121.38;52.30;;;;;;;6.40;100.00;97415.47;5032881;28;20300;-61
2023/01/10 07:55:12;;;;;;;129.38;52.00;;;;;;;6.01;100.00;97374.47;5033119;28;20296;-61
2023/01/10 07:57:37;;;;;;;110.47;48.65;;;;;;;6.25;100.00;97380.53;5032511;28;20194;-61
2023/01/10 08:00:03;;;;;;;125.28;54.13;;;;;;;6.16;100.00;97358.84;5032768;28;20171;-61
2023/01/10 08:02:28;;;;;;;125.88;56.28;;;;;;;6.37;100.00;97389.97;5033035;28;20178;-61
2023/01/10 08:04:53;;;;;;;128.95;51.78;;;;;;;6.27;100.00;97379.50;5032463;28;20532;-61
2023/01/10 08:07:19;;;;;;;129.35;50.83;;;;;;;5.87;100.00;97329.19;5032710;28;20182;-61
2023/01/10 08:09:44;;;;;;;138.10;54.25;;;;;;;6.08;100.00;97363.69;5033157;28;20692;-61
2023/01/10 08:12:10;;;;;;;135.85;53.20;;;;;;;6.15;100.00;97374.38;5033126;28;20171;-61
2023/01/10 08:14:35;;;;;;;128.40;53.17;;;;;;;5.80;100.00;97327.13;5032825;28;20174;-60
2023/01/10 08:17:00;;;;;;;130.23;52.55;;;;;;;5.99;100.00;97386.56;5032458;28;20672;-61
2023/01/10 08:19:26;;;;;;;142.55;54.67;;;;;;;5.45;100.00;97302.94;5033107;28;20177;-61
2023/01/10 08:21:53;;;;;;;124.05;52.00;;;;;;;6.00;100.00;97386.47;5032246;28;20606;-60
2023/01/10 08:24:18;;;;;;;136.02;52.95;;;;;;;5.73;100.00;97326.69;5032717;28;20180;-61
2023/01/10 08:26:43;;;;;;;137.85;53.67;;;;;;;5.66;100.00;97307.47;5032464;28;20619;-60
2023/01/10 08:29:09;;;;;;;131.73;54.33;;;;;;;6.18;100.00;97381.88;5031621;28;20174;-61
2023/01/10 08:31:34;;;;;;;135.52;53.45;;;;;;;5.65;100.00;97292.22;5032304;28;20585;-60
2023/01/10 08:34:00;;;;;;;118.82;51.38;;;;;;;6.12;100.00;97379.72;5032726;28;20158;-61
2023/01/10 08:36:27;;;;;;;136.48;53.80;;;;;;;6.17;100.00;97383.59;5032317;28;20628;-61
2023/01/10 08:38:54;;;;;;;135.20;53.92;;;;;;;5.68;100.00;97331.31;5032234;28;20198;-61
2023/01/10 08:41:19;;;;;;;126.03;50.55;;;;;;;5.82;100.00;97351.78;5032251;28;20190;-61
2023/01/10 08:43:49;;;;;;;133.02;55.28;;;;;;;5.90;100.00;97377.72;5032343;28;20228;-60
2023/01/10 08:46:14;;;;;;;138.27;54.15;;;;;;;5.83;100.00;97358.53;5032261;28;20174;-60
2023/01/10 08:48:40;;;;;;;133.95;54.20;;;;;;;5.46;100.00;97305.41;5032753;28;20185;-60
2023/01/10 08:51:08;;;;;;;144.45;55.55;;;;;;;5.46;100.00;97307.97;5032190;28;20660;-60
2023/01/10 08:53:34;;;;;;;143.25;55.03;;;;;;;5.64;100.00;97344.41;5032672;28;20257;-60
2023/01/10 08:56:00;;;;;;;152.10;57.72;;;;;;;5.72;100.00;97363.53;5032405;28;20344;-61
2023/01/10 08:58:26;;;;;;;150.88;58.05;;;;;;;5.57;100.00;97332.94;5032016;28;20640;-60
2023/01/10 09:00:51;;;;;;;142.65;58.40;;;;;;;5.72;100.00;97345.56;5032145;28;20224;-60
2023/01/10 09:03:17;;;;;;;156.35;61.83;;;;;;;5.29;100.00;97294.59;5032073;28;20212;-61
2023/01/10 09:05:43;;;;;;;163.65;59.65;;;;;;;5.33;100.00;97285.81;5032008;28;20189;-61
2023/01/10 09:08:10;;;;;;;141.23;59.15;;;;;;;5.23;100.00;97267.63;5031800;28;20182;-61
2023/01/10 09:10:35;;;;;;;145.48;59.92;;;;;;;5.53;100.00;97326.38;5031692;28;20183;-60
2023/01/10 09:13:03;;;;;;;137.10;60.20;;;;;;;5.32;100.00;97263.66;5032027;28;20542;-60
2023/01/10 09:15:31;;;;;;;159.05;61.88;;;;;;;5.87;100.00;97328.34;5031979;28;20189;-61
2023/01/10 09:17:59;;;;;;;147.13;58.67;;;;;;;5.85;100.00;97309.69;5032394;28;20249;-61
2023/01/10 09:20:27;;;;;;;142.25;57.35;;;;;;;5.90;100.00;97308.44;5031963;28;20178;-61
2023/01/10 09:22:53;;;;;;;138.27;60.60;;;;;;;5.60;100.00;97254.00;5031911;28;20236;-60
2023/01/10 09:25:18;;;;;;;151.40;63.53;;;;;;;5.65;100.00;97258.84;5031871;28;20586;-61
2023/01/10 09:27:43;;;;;;;149.07;65.43;;;;;;;6.01;100.00;97303.41;5032408;28;20269;-60
2023/01/10 09:30:12;;;;;;;153.20;60.92;;;;;;;5.82;100.00;97249.09;5032119;28;20265;-61
2023/01/10 09:32:37;;;;;;;136.27;59.33;;;;;;;6.07;100.00;97256.75;5031828;28;20194;-60
2023/01/10 09:35:03;;;;;;;119.30;55.90;;;;;;;5.91;100.00;97214.28;5032769;28;20683;-61
2023/01/10 09:37:29;;;;;;;124.00;55.35;;;;;;;5.67;100.00;97177.47;5035218;28;20199;-61
2023/01/10 09:39:54;;;;;;;117.53;54.17;;;;;;;6.19;100.00;97247.41;5035226;28;20257;-61
2023/01/10 09:42:31;;;;;;;126.68;53.85;;;;;;;6.27;100.00;97263.09;5035801;28;20250;-61
2023/01/10 09:45:14;;;;;;;150.52;65.47;;;;;;;5.90;100.00;97205.75;5035755;28;20158;-61
2023/01/10 09:47:50;;;;;;;126.75;55.75;;;;;;;6.16;100.00;97251.00;5035105;28;20176;-61
2023/01/10 09:50:47;;;;;;;120.82;52.88;;;;;;;6.21;100.00;97242.97;5035636;28;20585;-61
2023/01/10 09:53:23;;;;;;;120.28;51.30;;;;;;;5.92;100.00;97193.66;5035014;28;20646;-61
2023/01/10 09:55:53;;;;;;;115.35;54.55;;;;;;;6.26;100.00;97231.47;5035004;28;20162;-60
2023/01/10 09:58:26;;;;;;;110.38;53.88;;;;;;;5.69;100.00;97145.66;5035174;28;20293;-60
2023/01/10 10:00:56;;;;;;;113.60;56.67;;;;;;;5.94;100.00;97201.25;5035526;28;20163;-60
2023/01/10 10:03:50;;;;;;;120.47;54.58;;;;;;;6.14;100.00;97239.19;5034906;28;20648;-60
2023/01/10 10:06:15;;;;;;;127.03;55.63;;;;;;;5.77;100.00;97181.84;5035386;28;20178;-60
2023/01/10 10:08:43;;;;;;;126.53;54.05;;;;;;;6.09;100.00;97221.56;5034737;28;20703;-59
2023/01/10 10:11:18;;;;;;;110.07;50.78;;;;;;;6.15;100.00;97228.00;5034672;28;20185;-59
2023/01/10 10:14:15;;;;;;;109.40;48.35;;;;;;;5.95;100.00;97183.16;5035576;28;20231;-60
2023/01/10 10:16:49;;;;;;;124.15;50.35;;;;;;;6.17;100.00;97216.69;5034952;28;20514;-60
2023/01/10 10:19:14;;;;;;;106.88;50.08;;;;;;;6.18;100.00;97196.97;5034887;28;20174;-60
2023/01/10 10:21:48;;;;;;;107.68;53.10;;;;;;;6.18;100.00;97192.66;5034879;28;20186;-61
2023/01/10 10:24:29;;;;;;;120.80;58.90;;;;;;;6.12;100.00;97185.38;5034965;28;20572;-60
2023/01/10 10:27:07;;;;;;;123.10;55.67;;;;;;;5.87;100.00;97129.00;5035283;28;20178;-60
2023/01/10 10:30:07;;;;;;;116.88;51.78;;;;;;;6.14;100.00;97178.41;5035248;28;20518;-61
2023/01/10 10:32:32;;;;;;;128.93;53.72;;;;;;;6.04;100.00;97179.13;5035430;28;20195;-60
2023/01/10 10:35:03;;;;;;;181.38;69.40;;;;;;;5.93;100.00;97169.63;5034399;28;20174;-60
2023/01/10 10:37:47;;;;;;;164.10;63.08;;;;;;;5.56;100.00;97103.81;5034760;28;20538;-60
2023/01/10 10:40:12;;;;;;;165.02;71.22;;;;;;;5.87;100.00;97146.97;5034775;28;20224;-60
2023/01/10 10:42:49;;;;;;;145.73;66.28;;;;;;;5.66;100.00;97096.28;5034907;28;20174;-60
2023/01/10 10:45:38;;;;;;;141.60;60.40;;;;;;;5.87;100.00;97129.00;5034119;28;20229;-60
2023/01/10 10:48:15;;;;;;;126.75;58.95;;;;;;;5.80;100.00;97097.00;5033402;28;20182;-61
2023/01/10 10:50:50;;;;;;;117.70;51.72;;;;;;;6.02;100.00;97137.38;5034574;28;20170;-61
2023/01/10 10:53:17;;;;;;;120.10;54.67;;;;;;;5.90;100.00;97133.09;5034169;28;20579;-60
2023/01/10 10:55:43;;;;;;;125.50;56.05;;;;;;;5.91;100.00;97122.72;5011882;28;20559;-60
2023/01/10 10:58:13;;;;;;;127.03;57.05;;;;;;;5.52;100.00;97061.34;5011714;28;20210;-60
2023/01/10 11:00:39;;;;;;;119.13;57.67;;;;;;;5.58;100.00;97081.44;5012384;28;20193;-60
2023/01/10 11:03:34;;;;;;;279.73;113.75;;;;;;;5.97;100.00;97122.28;5012175;28;20171;-60
2023/01/10 11:06:00;;;;;;;191.38;80.60;;;;;;;5.94;100.00;97104.53;5011747;28;20221;-60
2023/01/10 11:08:28;;;;;;;213.25;92.47;;;;;;;5.64;100.00;97052.78;5011536;28;20729;-60
2023/01/10 11:10:56;;;;;;;208.00;89.22;;;;;;;5.64;100.00;97033.97;5011823;28;20269;-60
2023/01/10 11:13:31;;;;;;;283.60;107.45;;;;;;;6.06;100.00;97113.91;5011381;28;20175;-61
2023/01/10 11:15:57;;;;;;;180.00;74.18;;;;;;;6.02;100.00;97074.03;5011424;28;20221;-60
2023/01/10 11:18:25;;;;;;;166.88;70.10;;;;;;;6.02;100.00;97078.31;5011273;28;20770;-60
2023/01/10 11:21:07;;;;;;;106.85;53.88;;;;;;;5.81;100.00;97047.31;5011493;28;20247;-60
2023/01/10 11:23:41;;;;;;;113.70;53.83;;;;;;;6.13;100.00;97086.88;5012067;28;20674;-60
2023/01/10 11:26:22;;;;;;;191.60;75.22;;;;;;;6.03;100.00;97051.72;5016821;28;20695;-60
2023/01/10 11:28:48;;;;;;;182.85;75.88;;;;;;;6.04;100.00;97059.31;5033263;28;20240;-61
2023/01/10 11:31:14;;;;;;;165.32;72.45;;;;;;;6.00;100.00;97060.44;5032842;28;20166;-60